createdAt,value
2023-02-11T00:01:13.887Z,26.58
2023-02-11T00:03:40.808Z,23.25
2023-02-11T00:06:11.763Z,18.25
2023-02-11T00:08:39.419Z,25.40
2023-02-11T00:11:07.668Z,24.00
2023-02-11T00:13:34.948Z,28.77
2023-02-11T00:16:10.462Z,25.58
2023-02-11T00:18:37.463Z,25.27
2023-02-11T00:21:13.613Z,29.30
2023-02-11T00:23:40.831Z,20.30
2023-02-11T00:26:15.585Z,19.70
2023-02-11T00:28:43.162Z,25.52
2023-02-11T00:31:10.186Z,26.30
2023-02-11T00:33:37.199Z,28.23
2023-02-11T00:36:09.813Z,32.03
2023-02-11T00:38:36.712Z,26.33
2023-02-11T00:41:03.788Z,25.67
2023-02-11T00:43:30.672Z,26.00
2023-02-11T00:45:57.510Z,34.83
2023-02-11T00:48:24.351Z,35.97
2023-02-11T00:50:51.161Z,37.17
2023-02-11T00:53:18.406Z,38.35
2023-02-11T00:55:45.657Z,36.08
2023-02-11T00:58:12.651Z,35.90
2023-02-11T01:00:39.901Z,38.65
2023-02-11T01:03:06.777Z,41.28
2023-02-11T01:05:35.031Z,47.13
2023-02-11T01:08:02.099Z,35.30
2023-02-11T01:10:29.036Z,38.53
2023-02-11T01:12:56.015Z,37.75
2023-02-11T01:15:23.166Z,32.83
2023-02-11T01:17:50.448Z,32.10
2023-02-11T01:20:21.644Z,36.95
2023-02-11T01:22:49.055Z,38.42
2023-02-11T01:25:16.318Z,34.28
2023-02-11T01:27:43.124Z,41.08
2023-02-11T01:30:12.367Z,34.63
2023-02-11T01:32:39.860Z,35.70
2023-02-11T01:35:07.587Z,38.17
2023-02-11T01:37:35.484Z,36.80
2023-02-11T01:40:05.044Z,37.70
2023-02-11T01:42:33.508Z,41.45
2023-02-11T01:45:01.603Z,37.22
2023-02-11T01:47:28.409Z,38.83
2023-02-11T01:50:00.624Z,39.58
2023-02-11T01:52:36.469Z,43.42
2023-02-11T01:55:27.096Z,46.13
2023-02-11T01:57:57.770Z,38.63
2023-02-11T02:00:43.651Z,46.67
2023-02-11T02:03:15.303Z,40.17
2023-02-11T02:05:55.707Z,38.83
2023-02-11T02:08:42.593Z,27.15
2023-02-11T02:11:10.267Z,34.40
2023-02-11T02:13:37.245Z,31.45
2023-02-11T02:16:09.232Z,28.95
2023-02-11T02:19:07.576Z,32.55
2023-02-11T02:22:14.108Z,26.38
2023-02-11T02:25:01.030Z,34.55
2023-02-11T02:27:55.900Z,22.02
2023-02-11T02:30:40.762Z,23.60
2023-02-11T02:33:22.451Z,31.23
2023-02-11T02:36:15.284Z,29.95
2023-02-11T02:38:59.097Z,21.55
2023-02-11T02:41:30.961Z,26.20
2023-02-11T02:43:58.523Z,22.77
2023-02-11T02:46:35.618Z,20.30
2023-02-11T02:49:02.543Z,18.23
2023-02-11T02:51:54.175Z,22.38
2023-02-11T02:54:45.785Z,17.70
2023-02-11T02:57:47.816Z,25.23
2023-02-11T03:00:54.810Z,21.85
2023-02-11T03:03:55.190Z,19.73
2023-02-11T03:06:44.290Z,20.77
2023-02-11T03:11:57.056Z,16.77
2023-02-11T03:14:26.914Z,19.20
2023-02-11T03:17:02.493Z,22.05
2023-02-11T03:19:34.605Z,21.30
2023-02-11T03:22:05.491Z,27.45
2023-02-11T03:24:36.838Z,25.85
2023-02-11T03:27:12.567Z,24.88
2023-02-11T03:30:07.595Z,23.10
2023-02-11T03:32:42.980Z,20.88
2023-02-11T03:35:24.522Z,21.20
2023-02-11T03:38:19.686Z,18.02
2023-02-11T03:40:47.601Z,21.88
2023-02-11T03:43:34.660Z,22.33
2023-02-11T03:46:03.541Z,25.83
2023-02-11T03:48:43.137Z,16.55
2023-02-11T03:51:12.476Z,20.60
2023-02-11T03:53:43.036Z,20.10
2023-02-11T03:56:15.818Z,16.85
2023-02-11T03:58:45.838Z,25.73
2023-02-11T04:01:12.720Z,84.38
2023-02-11T04:03:39.921Z,16.80
2023-02-11T04:06:07.542Z,19.98
2023-02-11T04:08:34.933Z,20.23
2023-02-11T04:11:02.196Z,21.83
2023-02-11T04:13:29.011Z,14.27
2023-02-11T04:15:56.255Z,20.92
2023-02-11T04:18:23.517Z,20.77
2023-02-11T04:20:50.932Z,26.55
2023-02-11T04:23:17.952Z,14.98
2023-02-11T04:25:44.763Z,17.50
2023-02-11T04:28:11.665Z,21.98
2023-02-11T04:30:38.593Z,22.33
2023-02-11T04:33:05.461Z,31.42
2023-02-11T04:35:32.284Z,29.75
2023-02-11T04:37:59.090Z,22.13
2023-02-11T04:40:26.408Z,18.23
2023-02-11T04:42:53.251Z,12.40
2023-02-11T04:45:20.457Z,20.58
2023-02-11T04:47:47.287Z,17.40
2023-02-11T04:50:14.110Z,17.85
2023-02-11T04:52:41.385Z,14.40
2023-02-11T04:55:08.354Z,17.63
2023-02-11T04:57:35.656Z,18.08
2023-02-11T05:00:02.648Z,26.20
2023-02-11T05:02:29.904Z,17.42
2023-02-11T05:04:57.026Z,12.10
2023-02-11T05:07:24.278Z,14.65
2023-02-11T05:09:51.085Z,20.50
2023-02-11T05:12:18.363Z,56.35
2023-02-11T05:14:45.597Z,22.05
2023-02-11T05:17:12.361Z,15.23
2023-02-11T05:19:39.710Z,13.13
2023-02-11T05:22:06.928Z,11.98
2023-02-11T05:24:34.136Z,13.13
2023-02-11T05:27:01.695Z,11.15
2023-02-11T05:29:29.002Z,12.23
2023-02-11T05:31:56.220Z,10.40
2023-02-11T05:34:23.136Z,19.88
2023-02-11T05:36:49.974Z,11.63
2023-02-11T05:39:17.247Z,8.05
2023-02-11T05:41:44.500Z,9.38
2023-02-11T05:44:11.761Z,9.82
2023-02-11T05:46:38.613Z,13.40
2023-02-11T05:49:06.002Z,10.95
2023-02-11T05:51:33.213Z,10.65
2023-02-11T05:54:00.020Z,10.15
2023-02-11T05:56:27.327Z,13.15
2023-02-11T05:58:54.165Z,14.80
2023-02-11T06:01:21.027Z,8.43
2023-02-11T06:03:50.049Z,11.70
2023-02-11T06:06:17.529Z,9.02
2023-02-11T06:08:44.377Z,8.27
2023-02-11T06:11:11.235Z,6.63
2023-02-11T06:13:38.508Z,14.32
2023-02-11T06:16:05.682Z,12.60
2023-02-11T06:18:33.636Z,12.73
2023-02-11T06:21:00.923Z,13.85
2023-02-11T06:23:30.263Z,12.68
2023-02-11T06:26:02.453Z,8.80
2023-02-11T06:28:31.364Z,11.25
2023-02-11T06:33:26.061Z,14.40
2023-02-11T06:35:53.121Z,9.82
2023-02-11T06:38:20.087Z,5.55
2023-02-11T06:40:50.055Z,10.60
2023-02-11T06:43:17.397Z,14.73
2023-02-11T06:45:44.362Z,6.63
2023-02-11T06:48:11.700Z,15.73
2023-02-11T06:50:38.557Z,9.57
2023-02-11T06:53:05.920Z,10.35
2023-02-11T06:55:35.239Z,16.08
2023-02-11T06:58:02.113Z,8.57
2023-02-11T07:00:29.632Z,10.70
2023-02-11T07:02:56.485Z,11.20
2023-02-11T07:05:23.996Z,8.02
2023-02-11T07:07:51.216Z,15.13
2023-02-11T07:10:18.986Z,7.53
2023-02-11T07:12:46.229Z,14.82
2023-02-11T07:15:13.052Z,13.63
2023-02-11T07:17:39.935Z,9.40
2023-02-11T07:20:07.114Z,9.38
2023-02-11T07:22:34.627Z,9.40
2023-02-11T07:25:01.693Z,13.88
2023-02-11T07:27:28.484Z,10.50
2023-02-11T07:29:55.345Z,7.80
2023-02-11T07:32:22.239Z,14.05
2023-02-11T07:34:49.605Z,8.82
2023-02-11T07:37:16.552Z,6.45
2023-02-11T07:39:43.384Z,10.20
2023-02-11T07:42:10.264Z,7.28
2023-02-11T07:44:37.091Z,10.00
2023-02-11T07:47:05.037Z,14.82
2023-02-11T07:49:32.077Z,5.85
2023-02-11T07:51:58.993Z,12.48
2023-02-11T07:54:26.232Z,16.80
2023-02-11T07:56:53.162Z,5.85
2023-02-11T07:59:19.980Z,11.85
2023-02-11T08:01:47.330Z,10.10
2023-02-11T08:04:14.256Z,11.10
2023-02-11T08:06:43.299Z,9.52
2023-02-11T08:09:15.643Z,11.40
2023-02-11T08:11:43.152Z,8.07
2023-02-11T08:14:10.486Z,12.60
2023-02-11T08:16:39.004Z,7.88
2023-02-11T08:19:10.347Z,6.22
2023-02-11T08:21:37.559Z,13.68
2023-02-11T08:24:04.936Z,15.60
2023-02-11T08:26:34.924Z,7.30
2023-02-11T08:29:06.311Z,15.60
2023-02-11T08:31:39.249Z,8.90
2023-02-11T08:34:06.570Z,11.88
2023-02-11T08:36:36.874Z,7.72
2023-02-11T08:39:19.230Z,8.40
2023-02-11T08:41:51.526Z,9.80
2023-02-11T08:44:19.897Z,10.10
2023-02-11T08:46:47.890Z,5.00
2023-02-11T08:49:15.245Z,7.10
2023-02-11T08:51:42.786Z,10.30
2023-02-11T08:54:10.115Z,9.30
2023-02-11T08:56:38.395Z,8.35
2023-02-11T08:59:06.447Z,8.23
2023-02-11T09:01:33.937Z,9.88
2023-02-11T09:04:01.469Z,9.55
2023-02-11T09:06:29.266Z,6.07
2023-02-11T09:08:57.314Z,8.65
2023-02-11T09:11:35.356Z,9.75
2023-02-11T09:14:04.147Z,12.73
2023-02-11T09:16:34.444Z,12.70
2023-02-11T09:19:03.612Z,10.85
2023-02-11T09:21:30.996Z,7.75
2023-02-11T09:23:58.026Z,6.45
2023-02-11T09:26:29.855Z,17.50
2023-02-11T09:28:57.263Z,7.30
2023-02-11T09:31:26.243Z,14.68
2023-02-11T09:33:56.329Z,17.73
2023-02-11T09:36:28.984Z,17.00
2023-02-11T09:38:56.394Z,9.75
2023-02-11T09:41:33.863Z,11.63
2023-02-11T09:44:04.844Z,18.83
2023-02-11T09:46:43.134Z,6.50
2023-02-11T09:49:22.615Z,10.95
2023-02-11T09:51:56.043Z,15.85
2023-02-11T09:54:39.566Z,14.90
2023-02-11T09:57:23.017Z,10.35
2023-02-11T09:59:55.826Z,11.00
2023-02-11T10:02:30.316Z,10.18
2023-02-11T10:05:10.221Z,9.73
2023-02-11T10:08:14.631Z,12.68
2023-02-11T10:10:55.999Z,5.90
2023-02-11T10:13:29.109Z,8.60
2023-02-11T10:15:56.391Z,7.35
2023-02-11T10:19:00.424Z,11.55
2023-02-11T10:21:33.198Z,7.25
2023-02-11T10:24:08.668Z,13.80
2023-02-11T10:26:36.789Z,10.32
2023-02-11T10:29:23.231Z,3.83
2023-02-11T10:31:51.501Z,3.55
2023-02-11T10:34:18.838Z,4.60
2023-02-11T10:36:46.171Z,3.17
2023-02-11T10:39:21.564Z,5.13
2023-02-11T10:41:51.458Z,4.40
2023-02-11T10:44:34.788Z,3.60
2023-02-11T10:47:23.554Z,5.57
2023-02-11T10:49:50.579Z,6.75
2023-02-11T10:52:28.340Z,7.13
2023-02-11T10:55:15.233Z,5.97
2023-02-11T10:58:01.535Z,4.88
2023-02-11T11:00:36.178Z,3.25
2023-02-11T11:03:05.643Z,4.32
2023-02-11T11:05:37.784Z,7.80
2023-02-11T11:08:09.640Z,2.92
2023-02-11T11:10:46.953Z,6.75
2023-02-11T11:13:29.438Z,5.28
2023-02-11T11:16:14.795Z,10.50
2023-02-11T11:18:46.746Z,4.53
2023-02-11T11:21:21.767Z,7.45
2023-02-11T11:24:03.705Z,3.15
2023-02-11T11:26:45.530Z,6.75
2023-02-11T11:29:38.828Z,5.30
2023-02-11T11:32:15.185Z,4.38
2023-02-11T11:34:45.076Z,3.70
2023-02-11T11:37:12.280Z,2.28
2023-02-11T11:39:40.382Z,1.67
2023-02-11T11:42:26.073Z,3.00
2023-02-11T11:45:03.703Z,4.53
2023-02-11T11:47:33.444Z,4.35
2023-02-11T11:50:06.599Z,2.40
2023-02-11T11:52:47.880Z,9.02
2023-02-11T11:55:22.724Z,4.18
2023-02-11T11:57:50.006Z,4.05
2023-02-11T12:00:23.927Z,2.75
2023-02-11T12:03:03.090Z,2.45
2023-02-11T12:05:39.247Z,1.48
2023-02-11T12:08:51.272Z,3.80
2023-02-11T12:11:28.231Z,2.65
2023-02-11T12:14:03.710Z,4.50
2023-02-11T12:16:52.427Z,1.33
2023-02-11T12:19:33.181Z,1.05
2023-02-11T12:22:10.205Z,1.27
2023-02-11T12:24:37.044Z,1.30
2023-02-11T12:27:36.610Z,0.75
2023-02-11T12:30:37.242Z,3.53
2023-02-11T12:33:32.503Z,2.85
2023-02-11T12:36:30.013Z,3.22
2023-02-11T12:39:02.751Z,2.33
2023-02-11T12:41:59.787Z,1.08
2023-02-11T12:44:48.803Z,3.65
2023-02-11T12:47:24.584Z,2.58
2023-02-11T12:50:21.892Z,3.03
2023-02-11T12:53:26.607Z,3.75
2023-02-11T12:56:03.498Z,4.88
2023-02-11T12:58:44.536Z,4.90
2023-02-11T13:01:35.704Z,2.63
2023-02-11T13:04:12.854Z,3.65
2023-02-11T13:06:48.816Z,2.28
2023-02-11T13:09:30.646Z,3.10
2023-02-11T13:12:22.275Z,3.00
2023-02-11T13:14:52.107Z,1.50
2023-02-11T13:17:31.129Z,4.00
2023-02-11T13:20:03.484Z,5.05
2023-02-11T13:22:57.268Z,3.40
2023-02-11T13:25:56.495Z,3.30
2023-02-11T13:28:32.434Z,1.88
2023-02-11T13:31:06.838Z,3.53
2023-02-11T13:33:39.594Z,4.55
2023-02-11T13:36:06.425Z,5.10
2023-02-11T13:38:33.926Z,5.93
2023-02-11T13:41:06.964Z,3.35
2023-02-11T13:43:36.747Z,2.00
2023-02-11T13:46:11.010Z,4.95
2023-02-11T13:48:52.640Z,4.00
2023-02-11T13:51:39.320Z,5.13
2023-02-11T13:54:08.164Z,2.72
2023-02-11T13:56:46.299Z,1.95
2023-02-11T13:59:25.404Z,4.35
2023-02-11T14:02:24.992Z,3.83
2023-02-11T14:05:24.351Z,3.42
2023-02-11T14:08:36.335Z,2.47
2023-02-11T14:11:30.509Z,3.17
2023-02-11T14:14:16.116Z,3.08
2023-02-11T14:16:58.768Z,2.42
2023-02-11T14:19:37.137Z,6.55
2023-02-11T14:22:19.818Z,5.60
2023-02-11T14:24:54.261Z,2.05
2023-02-11T14:27:47.151Z,4.05
2023-02-11T14:30:36.955Z,3.88
2023-02-11T14:33:44.983Z,3.13
2023-02-11T14:36:12.192Z,3.78
2023-02-11T14:38:55.785Z,4.20
2023-02-11T14:41:30.427Z,3.95
2023-02-11T14:44:01.209Z,2.45
2023-02-11T14:46:33.066Z,2.15
2023-02-11T14:49:05.363Z,8.55
2023-02-11T14:51:38.430Z,2.45
2023-02-11T14:54:15.359Z,3.25
2023-02-11T14:56:42.666Z,3.33
2023-02-11T14:59:19.488Z,6.00
2023-02-11T15:01:50.588Z,2.65
2023-02-11T15:04:32.432Z,7.63
2023-02-11T15:07:07.284Z,8.20
2023-02-11T15:09:51.076Z,12.00
2023-02-11T15:12:26.494Z,16.30
2023-02-11T15:14:56.214Z,4.78
2023-02-11T15:17:28.477Z,11.75
2023-02-11T15:19:59.455Z,4.53
2023-02-11T15:22:46.271Z,4.38
2023-02-11T15:25:17.273Z,5.38
2023-02-11T15:27:49.180Z,5.22
2023-02-11T15:30:22.330Z,2.50
2023-02-11T15:32:58.707Z,2.65
2023-02-11T15:35:28.610Z,6.22
2023-02-11T15:37:57.520Z,3.95
2023-02-11T15:40:31.998Z,4.47
2023-02-11T15:43:02.884Z,3.35
2023-02-11T15:45:37.229Z,5.50
2023-02-11T15:48:21.576Z,3.45
2023-02-11T15:51:01.386Z,4.15
2023-02-11T15:53:33.534Z,2.75
2023-02-11T15:56:17.974Z,2.25
2023-02-11T15:58:47.742Z,4.53
2023-02-11T16:01:15.090Z,6.57
2023-02-11T16:03:44.032Z,7.15
2023-02-11T16:09:04.524Z,2.33
2023-02-11T16:11:34.771Z,4.25
2023-02-11T16:14:19.329Z,4.65
2023-02-11T16:16:50.335Z,3.42
2023-02-11T16:19:25.226Z,3.03
2023-02-11T16:21:54.696Z,2.28
2023-02-11T16:24:29.966Z,2.00
2023-02-11T16:27:03.252Z,2.78
2023-02-11T16:29:35.716Z,3.10
2023-02-11T16:32:09.958Z,2.17
2023-02-11T16:34:36.951Z,0.98
2023-02-11T16:37:05.558Z,3.22
2023-02-11T16:39:33.114Z,3.63
2023-02-11T16:42:00.420Z,5.65
2023-02-11T16:44:27.609Z,5.13
2023-02-11T16:46:55.677Z,1.83
2023-02-11T16:49:22.954Z,5.00
2023-02-11T16:51:52.629Z,4.63
2023-02-11T16:54:20.288Z,3.65
2023-02-11T16:56:47.173Z,6.43
2023-02-11T16:59:14.242Z,4.80
2023-02-11T17:01:43.041Z,3.47
2023-02-11T17:04:31.189Z,6.13
2023-02-11T17:06:58.881Z,6.43
2023-02-11T17:09:30.524Z,4.15
2023-02-11T17:11:57.869Z,6.13
2023-02-11T17:14:24.749Z,3.40
2023-02-11T17:16:51.958Z,2.95
2023-02-11T17:19:21.164Z,6.03
2023-02-11T17:21:50.469Z,7.03
2023-02-11T17:24:18.023Z,7.60
2023-02-11T17:26:45.719Z,7.70
2023-02-11T17:29:16.041Z,6.57
2023-02-11T17:31:43.177Z,5.57
2023-02-11T17:34:10.741Z,4.43
2023-02-11T17:36:37.776Z,6.93
2023-02-11T17:39:08.022Z,6.25
2023-02-11T17:41:37.228Z,5.40
2023-02-11T17:46:32.224Z,6.25
2023-02-11T17:48:59.680Z,9.40
2023-02-11T17:51:32.052Z,7.30
2023-02-11T17:54:05.714Z,4.38
2023-02-11T17:56:33.901Z,6.50
2023-02-11T17:59:02.494Z,7.18
2023-02-11T18:01:31.150Z,7.47
2023-02-11T18:03:58.222Z,7.95
2023-02-11T18:06:25.541Z,14.57
2023-02-11T18:08:52.477Z,10.02
2023-02-11T18:11:21.506Z,6.40
2023-02-11T18:13:54.364Z,7.05
2023-02-11T18:16:22.242Z,5.07
2023-02-11T18:18:49.830Z,6.10
2023-02-11T18:21:19.087Z,5.22
2023-02-11T18:23:47.051Z,5.00
2023-02-11T18:26:15.612Z,3.92
2023-02-11T18:28:45.629Z,7.57
2023-02-11T18:31:13.884Z,5.25
2023-02-11T18:33:41.822Z,4.33
2023-02-11T18:36:10.988Z,5.53
2023-02-11T18:38:39.066Z,4.40
2023-02-11T18:41:07.252Z,3.13
2023-02-11T18:43:35.058Z,6.45
2023-02-11T18:46:06.273Z,6.85
2023-02-11T18:48:34.076Z,3.22
2023-02-11T18:51:00.917Z,2.70
2023-02-11T18:53:27.809Z,5.53
2023-02-11T18:55:55.180Z,3.30
2023-02-11T18:58:22.263Z,4.35
2023-02-11T19:00:50.290Z,6.75
2023-02-11T19:03:17.433Z,13.30
2023-02-11T19:05:49.533Z,5.30
2023-02-11T19:08:17.212Z,5.03
2023-02-11T19:10:46.577Z,4.80
2023-02-11T19:13:14.274Z,9.48
2023-02-11T19:15:42.439Z,5.90
2023-02-11T19:18:09.747Z,4.15
2023-02-11T19:20:39.747Z,3.53
2023-02-11T19:23:06.792Z,9.50
2023-02-11T19:25:33.721Z,5.38
2023-02-11T19:28:01.140Z,3.67
2023-02-11T19:30:28.163Z,7.90
2023-02-11T19:32:57.139Z,7.90
2023-02-11T19:37:51.381Z,5.60
2023-02-11T19:40:19.200Z,6.55
2023-02-11T19:42:46.053Z,6.38
2023-02-11T19:45:12.956Z,6.78
2023-02-11T19:47:40.220Z,4.65
2023-02-11T19:50:07.884Z,1.67
2023-02-11T19:52:38.121Z,3.63
2023-02-11T19:55:05.419Z,4.45
2023-02-11T19:57:32.268Z,4.05
2023-02-11T19:59:59.204Z,4.05
2023-02-11T20:02:26.053Z,4.63
2023-02-11T20:04:53.267Z,4.40
2023-02-11T20:07:20.203Z,2.88
2023-02-11T20:09:47.059Z,2.88
2023-02-11T20:12:13.977Z,7.10
2023-02-11T20:14:40.867Z,4.07
2023-02-11T20:17:07.743Z,1.75
2023-02-11T20:19:34.710Z,4.38
2023-02-11T20:22:01.556Z,5.55
2023-02-11T20:24:28.362Z,1.98
2023-02-11T20:26:55.921Z,9.38
2023-02-11T20:29:24.869Z,2.75
2023-02-11T20:31:51.848Z,1.33
2023-02-11T20:34:18.929Z,4.18
2023-02-11T20:36:52.080Z,3.70
2023-02-11T20:39:22.504Z,3.83
2023-02-11T20:41:50.719Z,6.25
2023-02-11T20:44:17.579Z,4.57
2023-02-11T20:46:48.784Z,3.17
2023-02-11T20:49:18.942Z,4.07
2023-02-11T20:51:46.218Z,3.50
2023-02-11T20:54:18.358Z,3.97
2023-02-11T20:56:48.111Z,7.93
2023-02-11T20:59:17.039Z,3.13
2023-02-11T21:01:49.056Z,5.00
2023-02-11T21:04:18.761Z,6.00
2023-02-11T21:06:53.016Z,5.25
2023-02-11T21:09:22.629Z,4.03
2023-02-11T21:11:54.291Z,3.78
2023-02-11T21:14:23.981Z,4.97
2023-02-11T21:16:51.900Z,8.50
2023-02-11T21:19:18.780Z,5.78
2023-02-11T21:21:45.817Z,5.50
2023-02-11T21:24:12.938Z,7.22
2023-02-11T21:26:40.183Z,3.58
2023-02-11T21:29:08.467Z,3.05
2023-02-11T21:31:36.223Z,4.72
2023-02-11T21:34:03.877Z,4.90
2023-02-11T21:36:31.116Z,4.32
2023-02-11T21:38:58.308Z,4.07
2023-02-11T21:41:25.283Z,3.88
2023-02-11T21:43:52.275Z,5.15
2023-02-11T21:46:20.119Z,1.80
2023-02-11T21:48:47.503Z,3.50
2023-02-11T21:51:20.720Z,4.60
2023-02-11T21:53:47.749Z,5.35
2023-02-11T21:56:17.192Z,4.22
2023-02-11T21:58:45.466Z,3.72
2023-02-11T22:01:17.941Z,6.35
2023-02-11T22:03:46.138Z,5.70
2023-02-11T22:06:15.704Z,6.70
2023-02-11T22:08:42.526Z,3.45
2023-02-11T22:11:12.193Z,1.98
2023-02-11T22:13:39.898Z,1.08
2023-02-11T22:16:09.738Z,4.05
2023-02-11T22:18:37.190Z,2.60
2023-02-11T22:21:11.513Z,1.80
2023-02-11T22:23:39.392Z,2.13
2023-02-11T22:26:09.164Z,1.77
2023-02-11T22:28:38.854Z,1.65
2023-02-11T22:31:05.955Z,2.55
2023-02-11T22:33:33.402Z,2.45
2023-02-11T22:36:05.118Z,4.80
2023-02-11T22:38:33.531Z,9.68
2023-02-11T22:41:05.161Z,3.45
2023-02-11T22:43:32.463Z,3.42
2023-02-11T22:46:06.324Z,7.95
2023-02-11T22:48:34.934Z,2.10
2023-02-11T22:51:07.221Z,3.05
2023-02-11T22:53:34.311Z,3.17
2023-02-11T22:56:06.030Z,1.75
2023-02-11T22:58:33.695Z,2.80
2023-02-11T23:01:00.585Z,2.85
2023-02-11T23:03:28.264Z,0.80
2023-02-11T23:05:55.842Z,1.33
2023-02-11T23:08:22.970Z,1.50
2023-02-11T23:10:49.796Z,2.35
2023-02-11T23:13:16.683Z,1.13
2023-02-11T23:15:45.207Z,3.35
2023-02-11T23:18:13.387Z,11.00
2023-02-11T23:20:42.878Z,8.82
2023-02-11T23:23:09.743Z,2.03
2023-02-11T23:25:44.203Z,4.95
2023-02-11T23:28:11.869Z,2.10
2023-02-11T23:30:39.309Z,4.63
2023-02-11T23:33:06.200Z,3.45
2023-02-11T23:35:33.260Z,1.88
2023-02-11T23:38:00.113Z,8.60
2023-02-11T23:40:27.116Z,4.22
2023-02-11T23:42:53.974Z,2.65
2023-02-11T23:45:21.282Z,4.65
2023-02-11T23:47:48.370Z,3.90
2023-02-11T23:50:15.624Z,4.57
2023-02-11T23:52:42.492Z,4.25
2023-02-11T23:55:09.883Z,1.38
2023-02-11T23:57:37.317Z,2.63
